createdAt,value
2018-09-20T00:02:56.105Z,100.00
2018-09-20T00:06:00.554Z,100.00
2018-09-20T00:09:06.816Z,100.00
2018-09-20T00:12:11.315Z,100.00
2018-09-20T00:15:15.688Z,100.00
2018-09-20T00:18:20.013Z,100.00
2018-09-20T00:21:24.400Z,100.00
2018-09-20T00:24:28.713Z,100.00
2018-09-20T00:27:33.153Z,100.00
2018-09-20T00:30:37.467Z,100.00
2018-09-20T00:33:41.598Z,100.00
2018-09-20T00:36:45.925Z,100.00
2018-09-20T00:39:50.481Z,100.00
2018-09-20T00:42:54.888Z,100.00
2018-09-20T00:45:59.200Z,100.00
2018-09-20T00:49:03.602Z,100.00
2018-09-20T00:52:08.032Z,100.00
2018-09-20T00:55:12.392Z,100.00
2018-09-20T00:58:16.720Z,100.00
2018-09-20T01:01:21.282Z,100.00
2018-09-20T01:04:25.592Z,100.00
2018-09-20T01:07:30.065Z,100.00
2018-09-20T01:10:34.456Z,100.00
2018-09-20T01:13:38.880Z,100.00
2018-09-20T01:16:43.411Z,100.00
2018-09-20T01:19:47.836Z,100.00
2018-09-20T01:22:52.159Z,100.00
2018-09-20T01:25:56.492Z,100.00
2018-09-20T01:29:00.773Z,100.00
2018-09-20T01:32:05.170Z,100.00
2018-09-20T01:35:09.485Z,100.00
2018-09-20T01:38:13.932Z,100.00
2018-09-20T01:41:18.271Z,100.00
2018-09-20T01:44:22.696Z,100.00
2018-09-20T01:47:27.089Z,100.00
2018-09-20T01:50:31.441Z,100.00
2018-09-20T01:53:36.010Z,100.00
2018-09-20T01:56:40.388Z,100.00
2018-09-20T01:59:44.963Z,100.00
2018-09-20T02:02:49.282Z,100.00
2018-09-20T02:05:53.577Z,100.00
2018-09-20T02:08:57.868Z,100.00
2018-09-20T02:12:02.212Z,100.00
2018-09-20T02:15:06.548Z,100.00
2018-09-20T02:18:10.916Z,100.00
2018-09-20T02:21:15.429Z,100.00
2018-09-20T02:24:19.726Z,100.00
2018-09-20T02:27:24.026Z,100.00
2018-09-20T02:30:28.326Z,100.00
2018-09-20T02:33:32.628Z,100.00
2018-09-20T02:36:36.940Z,100.00
2018-09-20T02:39:41.313Z,100.00
2018-09-20T02:42:45.635Z,100.00
2018-09-20T02:45:50.270Z,100.00
2018-09-20T02:48:54.593Z,100.00
2018-09-20T02:51:58.912Z,100.00
2018-09-20T02:55:03.198Z,100.00
2018-09-20T02:58:07.485Z,100.00
2018-09-20T03:01:11.897Z,100.00
2018-09-20T03:04:16.219Z,100.00
2018-09-20T03:07:20.593Z,100.00
2018-09-20T03:10:24.923Z,100.00
2018-09-20T03:13:29.349Z,100.00
2018-09-20T03:16:33.790Z,100.00
2018-09-20T03:19:38.121Z,100.00
2018-09-20T03:22:42.463Z,100.00
2018-09-20T03:25:46.812Z,100.00
2018-09-20T03:28:51.211Z,100.00
2018-09-20T03:31:55.561Z,100.00
2018-09-20T03:34:59.969Z,100.00
2018-09-20T03:38:04.340Z,100.00
2018-09-20T03:41:08.826Z,100.00
2018-09-20T03:44:13.229Z,100.00
2018-09-20T03:47:17.668Z,100.00
2018-09-20T03:50:21.986Z,100.00
2018-09-20T03:53:26.383Z,100.00
2018-09-20T03:56:30.930Z,100.00
2018-09-20T03:59:35.686Z,100.00
2018-09-20T04:02:40.703Z,100.00
2018-09-20T04:05:45.062Z,100.00
2018-09-20T04:08:50.591Z,100.00
2018-09-20T04:11:55.197Z,100.00
2018-09-20T04:15:00.611Z,100.00
2018-09-20T04:18:04.968Z,100.00
2018-09-20T04:21:09.380Z,100.00
2018-09-20T04:24:13.733Z,100.00
2018-09-20T04:27:19.632Z,100.00
2018-09-20T04:30:28.265Z,100.00
2018-09-20T04:33:32.581Z,100.00
2018-09-20T04:36:37.309Z,100.00
2018-09-20T04:39:41.761Z,100.00
2018-09-20T04:42:46.062Z,100.00
2018-09-20T04:45:52.157Z,100.00
2018-09-20T04:48:56.571Z,100.00
2018-09-20T04:52:02.256Z,100.00
2018-09-20T04:55:07.314Z,100.00
2018-09-20T04:58:11.773Z,100.00
2018-09-20T05:01:16.112Z,100.00
2018-09-20T05:04:20.460Z,100.00
2018-09-20T05:07:24.796Z,100.00
2018-09-20T05:10:29.390Z,100.00
2018-09-20T05:13:33.735Z,100.00
2018-09-20T05:16:38.382Z,100.00
2018-09-20T05:19:43.000Z,100.00
2018-09-20T05:22:47.297Z,100.00
2018-09-20T05:25:51.625Z,100.00
2018-09-20T05:28:55.909Z,100.00
2018-09-20T05:32:00.221Z,100.00
2018-09-20T05:35:04.532Z,100.00
2018-09-20T05:38:08.909Z,100.00
2018-09-20T05:41:13.225Z,100.00
2018-09-20T05:44:17.584Z,100.00
2018-09-20T05:47:21.940Z,100.00
2018-09-20T05:50:26.236Z,100.00
2018-09-20T05:53:30.554Z,100.00
2018-09-20T05:57:10.196Z,100.00
2018-09-20T06:00:14.514Z,100.00
2018-09-20T06:03:18.879Z,100.00
2018-09-20T06:06:23.304Z,100.00
2018-09-20T06:09:27.596Z,100.00
2018-09-20T06:12:31.904Z,100.00
2018-09-20T06:15:36.208Z,100.00
2018-09-20T06:18:40.537Z,100.00
2018-09-20T06:21:44.865Z,100.00
2018-09-20T06:24:49.190Z,100.00
2018-09-20T06:27:53.496Z,98.58
2018-09-20T06:30:57.808Z,96.84
2018-09-20T06:34:02.108Z,94.67
2018-09-20T06:37:06.782Z,91.97
2018-09-20T06:40:11.152Z,89.21
2018-09-20T06:43:15.513Z,85.65
2018-09-20T06:46:19.824Z,80.81
2018-09-20T06:49:24.563Z,75.04
2018-09-20T06:52:28.984Z,69.34
2018-09-20T06:55:33.408Z,65.02
2018-09-20T06:58:37.795Z,63.10
2018-09-20T07:01:42.152Z,63.70
2018-09-20T07:04:46.524Z,67.00
2018-09-20T07:07:50.848Z,68.41
2018-09-20T07:10:55.292Z,72.16
2018-09-20T07:13:59.601Z,74.94
2018-09-20T07:17:04.085Z,80.35
2018-09-20T07:20:08.585Z,83.26
2018-09-20T07:23:12.931Z,84.26
2018-09-20T07:26:17.427Z,82.42
2018-09-20T07:29:21.752Z,81.37
2018-09-20T07:32:26.081Z,82.22
2018-09-20T07:35:30.391Z,83.29
2018-09-20T07:38:34.712Z,83.35
2018-09-20T07:41:39.476Z,83.65
2018-09-20T07:44:43.792Z,84.83
2018-09-20T07:47:48.176Z,82.67
2018-09-20T07:50:52.711Z,83.05
2018-09-20T07:53:57.014Z,82.62
2018-09-20T07:57:01.325Z,83.50
2018-09-20T08:00:05.874Z,81.83
2018-09-20T08:03:10.233Z,81.52
2018-09-20T08:06:14.570Z,82.08
2018-09-20T08:09:18.896Z,80.99
2018-09-20T08:12:23.199Z,80.85
2018-09-20T08:15:27.524Z,79.71
2018-09-20T08:18:31.883Z,80.45
2018-09-20T08:21:36.339Z,78.38
2018-09-20T08:24:40.573Z,77.10
2018-09-20T08:27:45.033Z,76.05
2018-09-20T08:30:50.027Z,75.22
2018-09-20T08:33:54.558Z,77.39
2018-09-20T08:36:58.942Z,72.75
2018-09-20T08:40:03.908Z,71.65
2018-09-20T08:43:08.269Z,71.12
2018-09-20T08:46:12.800Z,70.39
2018-09-20T08:49:17.160Z,67.81
2018-09-20T08:52:22.225Z,69.06
2018-09-20T08:55:26.603Z,67.75
2018-09-20T08:58:32.909Z,69.12
2018-09-20T09:01:37.417Z,68.85
2018-09-20T09:04:41.885Z,65.75
2018-09-20T09:07:46.387Z,67.46
2018-09-20T09:10:50.877Z,66.81
2018-09-20T09:13:55.200Z,65.60
2018-09-20T09:16:59.647Z,62.25
2018-09-20T09:20:04.113Z,62.28
2018-09-20T09:23:08.455Z,63.27
2018-09-20T09:26:12.768Z,65.51
2018-09-20T09:29:17.187Z,62.15
2018-09-20T09:32:21.544Z,63.02
2018-09-20T09:35:25.891Z,65.41
2018-09-20T09:38:30.239Z,61.37
2018-09-20T09:41:34.600Z,62.49
2018-09-20T09:44:38.952Z,60.71
2018-09-20T09:47:43.467Z,60.46
2018-09-20T09:50:49.034Z,58.86
2018-09-20T09:53:53.358Z,59.88
2018-09-20T09:56:57.684Z,62.42
2018-09-20T10:00:02.024Z,63.38
2018-09-20T10:03:06.440Z,61.40
2018-09-20T10:06:10.748Z,62.24
2018-09-20T10:09:15.082Z,63.68
2018-09-20T10:12:19.384Z,61.95
2018-09-20T10:15:23.725Z,63.71
2018-09-20T10:18:28.060Z,61.50
2018-09-20T10:21:32.412Z,63.89
2018-09-20T10:24:36.770Z,64.12
2018-09-20T10:27:41.106Z,62.64
2018-09-20T10:30:45.434Z,61.79
2018-09-20T10:33:49.771Z,60.86
2018-09-20T10:36:54.164Z,60.65
2018-09-20T10:39:58.505Z,59.68
2018-09-20T10:43:02.804Z,59.64
2018-09-20T10:46:07.135Z,61.67
2018-09-20T10:49:11.436Z,59.52
2018-09-20T10:52:15.868Z,60.05
2018-09-20T10:55:20.172Z,59.75
2018-09-20T10:58:24.637Z,58.98
2018-09-20T11:01:29.032Z,57.75
2018-09-20T11:04:38.134Z,59.69
2018-09-20T11:10:58.925Z,56.76
2018-09-20T11:14:03.167Z,55.82
2018-09-20T11:17:07.459Z,50.83
2018-09-20T11:20:11.756Z,53.69
2018-09-20T11:23:16.104Z,51.93
2018-09-20T11:26:20.516Z,51.91
2018-09-20T11:29:24.893Z,51.35
2018-09-20T11:32:29.356Z,49.75
2018-09-20T11:35:33.807Z,51.31
2018-09-20T11:38:38.303Z,52.49
2018-09-20T11:41:42.937Z,52.90
2018-09-20T11:44:47.352Z,52.92
2018-09-20T11:47:51.655Z,54.38
2018-09-20T11:50:56.285Z,50.11
2018-09-20T11:54:00.640Z,48.32
2018-09-20T11:57:04.993Z,47.89
2018-09-20T12:00:09.280Z,49.31
2018-09-20T12:03:13.651Z,50.19
2018-09-20T12:06:18.003Z,50.49
2018-09-20T12:09:22.352Z,48.99
2018-09-20T12:12:28.211Z,50.99
2018-09-20T12:15:32.796Z,50.16
2018-09-20T12:18:37.145Z,51.47
2018-09-20T12:21:42.058Z,52.48
2018-09-20T12:24:47.217Z,50.97
2018-09-20T12:27:53.345Z,50.86
2018-09-20T12:30:58.863Z,48.17
2018-09-20T12:34:04.312Z,50.44
2018-09-20T12:37:10.406Z,50.91
2018-09-20T12:40:15.372Z,50.73
2018-09-20T12:43:20.559Z,47.70
2018-09-20T12:46:25.065Z,49.59
2018-09-20T12:49:29.713Z,47.65
2018-09-20T12:52:34.158Z,49.82
2018-09-20T12:55:39.024Z,50.18
2018-09-20T12:58:49.626Z,49.35
2018-09-20T13:01:55.664Z,49.39
2018-09-20T13:05:00.274Z,52.11
2018-09-20T13:08:04.979Z,51.12
2018-09-20T13:11:09.364Z,50.43
2018-09-20T13:14:14.825Z,47.86
2018-09-20T13:17:19.252Z,47.46
2018-09-20T13:20:23.680Z,47.02
2018-09-20T13:23:28.321Z,48.26
2018-09-20T13:26:33.092Z,49.06
2018-09-20T13:29:37.491Z,47.84
2018-09-20T13:32:41.817Z,48.30
2018-09-20T13:35:46.351Z,47.53
2018-09-20T13:38:50.892Z,47.37
2018-09-20T13:41:55.789Z,45.27
2018-09-20T13:45:00.122Z,46.04
2018-09-20T13:48:04.717Z,46.79
2018-09-20T13:51:09.158Z,46.68
2018-09-20T13:54:13.562Z,46.65
2018-09-20T13:57:18.093Z,41.63
2018-09-20T14:00:22.565Z,43.62
2018-09-20T14:03:27.391Z,46.57
2018-09-20T14:06:31.699Z,48.08
2018-09-20T14:09:36.524Z,46.94
2018-09-20T14:12:40.976Z,45.50
2018-09-20T14:15:45.527Z,48.01
2018-09-20T14:18:50.767Z,47.18
2018-09-20T14:21:55.255Z,48.02
2018-09-20T14:24:59.680Z,47.21
2018-09-20T14:28:04.386Z,51.10
2018-09-20T14:31:08.739Z,50.80
2018-09-20T14:34:13.149Z,52.23
2018-09-20T14:37:17.681Z,50.52
2018-09-20T14:40:42.379Z,49.23
2018-09-20T14:47:31.475Z,51.01
2018-09-20T14:54:05.088Z,48.07
2018-09-20T14:57:10.561Z,49.79
2018-09-20T15:00:19.747Z,48.58
2018-09-20T15:03:29.081Z,47.17
2018-09-20T15:06:34.213Z,50.36
2018-09-20T15:09:41.709Z,48.34
2018-09-20T15:12:49.486Z,50.82
2018-09-20T15:15:53.999Z,49.62
2018-09-20T15:19:00.342Z,50.67
2018-09-20T15:22:07.249Z,50.88
2018-09-20T15:25:11.873Z,52.54
2018-09-20T15:28:16.647Z,50.04
2018-09-20T15:31:22.280Z,50.20
2018-09-20T15:34:32.937Z,50.64
2018-09-20T15:37:40.329Z,49.24
2018-09-20T15:40:46.871Z,48.29
2018-09-20T15:43:55.361Z,49.69
2018-09-20T15:47:01.147Z,50.89
2018-09-20T15:50:05.927Z,52.26
2018-09-20T15:53:11.507Z,52.44
2018-09-20T15:56:15.914Z,54.57
2018-09-20T15:59:21.685Z,54.78
2018-09-20T16:02:28.383Z,55.00
2018-09-20T16:05:34.210Z,57.32
2018-09-20T16:08:49.445Z,56.82
2018-09-20T16:11:58.105Z,56.11
2018-09-20T16:18:56.601Z,58.04
2018-09-20T16:22:03.996Z,57.64
2018-09-20T16:25:18.708Z,57.81
2018-09-20T16:29:50.494Z,59.13
2018-09-20T16:33:51.061Z,59.80
2018-09-20T16:37:12.939Z,61.74
2018-09-20T16:43:59.566Z,64.66
2018-09-20T16:47:07.002Z,65.43
2018-09-20T16:50:12.902Z,66.79
2018-09-20T16:53:58.460Z,68.01
2018-09-20T17:00:23.412Z,70.35
2018-09-20T17:10:53.305Z,73.63
2018-09-20T17:14:01.823Z,74.88
2018-09-20T17:17:09.739Z,76.14
2018-09-20T17:20:14.943Z,77.60
2018-09-20T17:26:34.046Z,79.99
2018-09-20T17:29:38.817Z,80.65
2018-09-20T17:33:11.172Z,81.74
2018-09-20T17:40:08.197Z,84.95
2018-09-20T17:43:19.404Z,85.68
2018-09-20T17:46:34.388Z,86.87
2018-09-20T17:53:45.984Z,90.37
2018-09-20T17:57:00.480Z,91.45
2018-09-20T18:00:04.946Z,92.32
2018-09-20T18:03:10.970Z,93.06
2018-09-20T18:06:21.060Z,92.66
2018-09-20T18:09:34.873Z,92.17
2018-09-20T18:12:39.486Z,91.10
2018-09-20T18:15:56.729Z,92.10
2018-09-20T18:23:30.825Z,94.18
2018-09-20T18:26:50.098Z,95.06
2018-09-20T18:29:55.128Z,95.10
2018-09-20T18:33:02.953Z,94.53
2018-09-20T18:36:07.460Z,94.78
2018-09-20T18:39:13.658Z,95.87
2018-09-20T18:42:19.524Z,95.71
2018-09-20T18:45:24.761Z,96.03
2018-09-20T18:48:29.193Z,96.93
2018-09-20T18:51:33.982Z,97.74
2018-09-20T18:54:38.680Z,98.33
2018-09-20T18:57:43.175Z,98.95
2018-09-20T19:01:23.035Z,98.06
2018-09-20T19:04:29.986Z,97.64
2018-09-20T19:07:38.602Z,98.56
2018-09-20T19:14:04.157Z,99.88
2018-09-20T19:17:12.282Z,100.00
2018-09-20T19:20:22.499Z,100.00
2018-09-20T19:23:27.630Z,100.00
2018-09-20T19:26:32.714Z,99.77
2018-09-20T19:29:41.597Z,99.02
2018-09-20T19:32:47.082Z,99.92
2018-09-20T19:35:53.525Z,100.00
2018-09-20T19:42:47.292Z,100.00
2018-09-20T19:45:55.416Z,100.00
2018-09-20T19:49:07.269Z,100.00
2018-09-20T19:52:57.054Z,100.00
2018-09-20T19:59:23.148Z,100.00
2018-09-20T20:02:30.796Z,100.00
2018-09-20T20:05:39.053Z,100.00
2018-09-20T20:08:46.857Z,100.00
2018-09-20T20:11:52.567Z,100.00
2018-09-20T20:14:58.453Z,100.00
2018-09-20T20:18:06.677Z,100.00
2018-09-20T20:21:11.121Z,100.00
2018-09-20T20:24:18.036Z,100.00
2018-09-20T20:27:22.504Z,100.00
2018-09-20T20:30:27.557Z,100.00
2018-09-20T20:33:32.411Z,100.00
2018-09-20T20:36:37.209Z,100.00
2018-09-20T20:39:41.707Z,100.00
2018-09-20T20:42:46.123Z,100.00
2018-09-20T20:45:50.878Z,100.00
2018-09-20T20:48:56.859Z,100.00
2018-09-20T20:52:02.767Z,100.00
2018-09-20T20:55:07.339Z,100.00
2018-09-20T20:58:11.759Z,100.00
2018-09-20T21:01:19.222Z,100.00
2018-09-20T21:04:25.512Z,100.00
2018-09-20T21:07:31.354Z,100.00
2018-09-20T21:10:51.613Z,100.00
2018-09-20T21:13:57.676Z,100.00
2018-09-20T21:17:04.121Z,100.00
2018-09-20T21:20:13.420Z,100.00
2018-09-20T21:23:19.103Z,100.00
2018-09-20T21:26:23.648Z,100.00
2018-09-20T21:29:27.967Z,100.00
2018-09-20T21:32:32.424Z,100.00
2018-09-20T21:35:37.840Z,100.00
2018-09-20T21:38:42.148Z,100.00
2018-09-20T21:41:46.451Z,100.00
2018-09-20T21:44:50.775Z,100.00
2018-09-20T21:47:55.185Z,100.00
2018-09-20T21:50:59.719Z,100.00
2018-09-20T21:54:04.137Z,100.00
2018-09-20T21:57:08.653Z,100.00
2018-09-20T22:00:13.000Z,100.00
2018-09-20T22:03:17.454Z,100.00
2018-09-20T22:06:22.017Z,100.00
2018-09-20T22:09:26.357Z,100.00
2018-09-20T22:12:30.657Z,100.00
2018-09-20T22:15:35.116Z,100.00
2018-09-20T22:18:39.583Z,100.00
2018-09-20T22:21:44.129Z,100.00
2018-09-20T22:24:48.602Z,100.00
2018-09-20T22:27:52.992Z,100.00
2018-09-20T22:30:57.316Z,100.00
2018-09-20T22:34:01.681Z,100.00
2018-09-20T22:37:06.289Z,100.00
2018-09-20T22:40:10.999Z,100.00
2018-09-20T22:43:15.451Z,100.00
2018-09-20T22:46:20.653Z,100.00
2018-09-20T22:49:25.158Z,100.00
2018-09-20T22:52:30.300Z,100.00
2018-09-20T22:55:35.947Z,100.00
2018-09-20T22:58:40.301Z,100.00
2018-09-20T23:01:44.873Z,100.00
2018-09-20T23:04:49.989Z,100.00
2018-09-20T23:07:54.449Z,100.00
2018-09-20T23:10:59.008Z,100.00
2018-09-20T23:14:03.540Z,100.00
2018-09-20T23:17:08.038Z,100.00
2018-09-20T23:20:12.527Z,100.00
2018-09-20T23:23:16.916Z,100.00
2018-09-20T23:26:21.443Z,100.00
2018-09-20T23:29:25.786Z,100.00
2018-09-20T23:32:30.172Z,100.00
2018-09-20T23:35:34.566Z,100.00
2018-09-20T23:38:38.939Z,100.00
2018-09-20T23:41:43.287Z,100.00
2018-09-20T23:44:47.912Z,100.00
2018-09-20T23:47:53.012Z,100.00
2018-09-20T23:50:57.441Z,100.00
2018-09-20T23:54:02.688Z,100.00
2018-09-20T23:57:07.232Z,100.00
